Time;durP1;ratioP1;P1;durP2;ratioP2;P2;SDS_P1;SDS_P2;PMS_P1;PMS_P2;Temp;Humidity;BMP_temperature;BMP_pressure;BME280_temperature;BME280_humidity;BME280_pressure;Samples;Min_cycle;Max_cycle;Signal;HPM_P1;HPM_P2
2021/07/26 00:02:07;;;;;;;6.07;4.40;;;18.60;99.90;;;;;;4994320;28;20212;-73
2021/07/26 00:04:32;;;;;;;5.13;4.00;;;18.60;99.90;;;;;;5009190;28;20200;-73
2021/07/26 00:06:58;;;;;;;6.33;4.67;;;18.50;99.90;;;;;;4977224;28;20238;-73
2021/07/26 00:09:23;;;;;;;5.87;4.50;;;18.50;99.90;;;;;;4992903;28;20203;-73
2021/07/26 00:11:49;;;;;;;7.10;4.83;;;18.70;99.90;;;;;;4992668;28;20212;-73
2021/07/26 00:14:14;;;;;;;7.20;4.60;;;18.50;99.90;;;;;;4993266;28;20187;-73
2021/07/26 00:16:40;;;;;;;6.50;4.93;;;18.60;99.90;;;;;;4992801;28;20243;-72
2021/07/26 00:19:05;;;;;;;6.70;4.67;;;18.40;99.90;;;;;;4993136;28;20180;-72
2021/07/26 00:21:31;;;;;;;6.30;4.80;;;18.50;99.90;;;;;;4993078;28;20180;-73
2021/07/26 00:23:57;;;;;;;5.73;5.00;;;18.30;99.90;;;;;;4993251;28;20694;-73
2021/07/26 00:26:24;;;;;;;5.20;4.40;;;18.50;99.90;;;;;;4976764;28;20196;-73
2021/07/26 00:28:50;;;;;;;7.20;4.60;;;18.40;99.90;;;;;;4992932;28;20616;-73
2021/07/26 00:31:16;;;;;;;6.70;5.00;;;18.40;99.90;;;;;;4994187;28;20176;-73
2021/07/26 00:34:10;;;;;;;5.13;4.63;;;18.40;99.90;;;;;;4993089;28;20212;-72
2021/07/26 00:36:46;;;;;;;5.00;4.43;;;18.20;99.90;;;;;;4994043;28;20671;-73
2021/07/26 00:39:14;;;;;;;7.20;4.50;;;18.20;99.90;;;;;;4992485;28;20184;-73
2021/07/26 00:41:39;;;;;;;5.60;4.50;;;18.30;99.90;;;;;;4977212;28;20260;-73
2021/07/26 00:44:05;;;;;;;7.03;5.23;;;18.20;99.90;;;;;;4976835;28;20200;-73
2021/07/26 00:46:31;;;;;;;9.60;5.30;;;18.20;99.90;;;;;;4992928;28;20219;-73
2021/07/26 00:48:56;;;;;;;5.37;4.53;;;18.30;99.90;;;;;;4993106;28;20208;-73
2021/07/26 00:51:22;;;;;;;6.90;4.80;;;18.10;99.90;;;;;;4976869;28;20180;-73
2021/07/26 00:53:48;;;;;;;7.57;5.03;;;18.10;99.90;;;;;;4960828;28;20188;-73
2021/07/26 00:56:14;;;;;;;6.20;4.73;;;18.20;99.90;;;;;;4994319;28;20212;-73
2021/07/26 00:58:39;;;;;;;5.70;4.43;;;18.20;99.90;;;;;;4996899;28;20188;-73
2021/07/26 01:01:05;;;;;;;6.27;4.70;;;18.10;99.90;;;;;;4996914;28;20184;-73
2021/07/26 01:03:30;;;;;;;5.13;4.60;;;18.20;99.90;;;;;;4980990;28;20172;-73
2021/07/26 01:05:56;;;;;;;5.73;4.70;;;18.20;99.90;;;;;;4996902;28;20239;-73
2021/07/26 01:08:22;;;;;;;6.07;4.37;;;18.20;99.90;;;;;;4980797;28;20660;-73
2021/07/26 01:10:48;;;;;;;6.63;4.93;;;18.20;99.90;;;;;;4997353;28;20176;-73
2021/07/26 01:13:13;;;;;;;6.50;5.07;;;18.20;99.90;;;;;;4980942;28;20226;-73
2021/07/26 01:15:39;;;;;;;7.77;5.27;;;18.10;99.90;;;;;;5012545;28;20567;-73
2021/07/26 01:18:26;;;;;;;7.77;5.53;;;18.20;99.90;;;;;;4996979;28;20599;-73
2021/07/26 01:20:57;;;;;;;7.23;5.50;;;18.20;99.90;;;;;;4996393;28;20386;-73
2021/07/26 01:23:24;;;;;;;6.80;5.03;;;18.30;99.90;;;;;;4981297;28;20259;-73
2021/07/26 01:25:50;;;;;;;6.13;5.30;;;18.20;99.90;;;;;;4996430;28;20254;-73
2021/07/26 01:28:16;;;;;;;7.53;5.10;;;18.20;99.90;;;;;;4996091;28;20176;-73
2021/07/26 01:30:42;;;;;;;9.37;5.63;;;18.30;99.90;;;;;;4998702;28;20513;-73
2021/07/26 01:33:12;;;;;;;6.50;5.67;;;18.20;99.90;;;;;;5012659;28;20223;-73
2021/07/26 01:35:37;;;;;;;8.03;5.80;;;18.10;99.90;;;;;;4996681;28;20258;-73
2021/07/26 01:38:03;;;;;;;7.77;5.57;;;18.20;99.90;;;;;;4996570;28;20176;-73
2021/07/26 01:40:29;;;;;;;7.53;5.60;;;18.00;99.90;;;;;;4996279;28;20187;-73
2021/07/26 01:43:01;;;;;;;7.33;5.33;;;18.00;99.90;;;;;;4996674;28;20177;-73
2021/07/26 01:45:27;;;;;;;7.07;4.93;;;18.10;99.90;;;;;;4998446;28;20215;-73
2021/07/26 01:47:54;;;;;;;5.87;5.03;;;17.90;99.90;;;;;;4995962;28;20268;-73
2021/07/26 01:50:20;;;;;;;7.53;5.50;;;18.10;99.90;;;;;;4996193;28;20212;-73
2021/07/26 01:52:49;;;;;;;6.50;5.87;;;17.80;99.90;;;;;;4996597;28;20227;-73
2021/07/26 01:55:14;;;;;;;7.53;5.57;;;17.90;99.90;;;;;;4979962;28;20204;-73
2021/07/26 01:57:40;;;;;;;8.03;5.73;;;17.80;99.90;;;;;;4980111;28;20613;-73
2021/07/26 02:00:06;;;;;;;6.33;5.40;;;17.80;99.90;;;;;;4995921;28;20195;-73
2021/07/26 02:02:31;;;;;;;6.83;5.60;;;17.80;99.90;;;;;;4979947;28;20184;-73
2021/07/26 02:05:00;;;;;;;6.07;5.43;;;18.00;99.90;;;;;;4996105;28;20562;-73
2021/07/26 02:07:26;;;;;;;8.03;5.73;;;17.70;99.90;;;;;;4980431;28;20172;-72
2021/07/26 02:09:51;;;;;;;7.50;5.50;;;17.80;99.90;;;;;;4995154;28;20168;-73
2021/07/26 02:12:17;;;;;;;8.80;4.93;;;17.70;99.90;;;;;;4996949;28;20664;-73
2021/07/26 02:14:43;;;;;;;7.43;5.23;;;17.80;99.90;;;;;;4995647;28;20258;-73
2021/07/26 02:17:08;;;;;;;7.03;5.17;;;17.70;99.90;;;;;;4995711;28;20643;-73
2021/07/26 02:19:34;;;;;;;8.17;5.30;;;17.60;99.90;;;;;;4995696;28;20472;-73
2021/07/26 02:22:00;;;;;;;6.43;5.10;;;17.50;99.90;;;;;;4995805;28;20282;-73
2021/07/26 02:24:25;;;;;;;7.10;5.43;;;17.60;99.90;;;;;;4979539;28;20192;-73
2021/07/26 02:26:51;;;;;;;6.33;5.13;;;17.60;99.90;;;;;;4979254;28;20176;-73
2021/07/26 02:29:17;;;;;;;11.37;5.23;;;17.50;99.90;;;;;;4979085;28;20199;-73
2021/07/26 02:31:42;;;;;;;9.80;5.30;;;17.50;99.90;;;;;;4997141;28;20248;-73
2021/07/26 02:34:08;;;;;;;7.93;5.20;;;17.50;99.90;;;;;;4995855;28;20207;-73
2021/07/26 02:36:33;;;;;;;6.77;5.03;;;17.40;99.90;;;;;;4995644;28;20196;-73
2021/07/26 02:38:59;;;;;;;5.47;4.50;;;17.50;99.90;;;;;;4995334;28;20219;-73
2021/07/26 02:41:25;;;;;;;5.97;4.90;;;17.50;99.90;;;;;;4979944;28;20799;-73
2021/07/26 02:43:50;;;;;;;5.70;5.10;;;17.50;99.90;;;;;;4996549;28;20184;-73
2021/07/26 02:46:16;;;;;;;7.23;5.17;;;17.40;99.90;;;;;;4979123;28;20590;-73
2021/07/26 02:48:41;;;;;;;6.43;4.90;;;17.40;99.90;;;;;;4995230;28;20179;-73
2021/07/26 02:51:07;;;;;;;5.67;4.77;;;17.50;99.90;;;;;;4995567;28;20217;-73
2021/07/26 02:53:33;;;;;;;6.83;4.97;;;17.40;99.90;;;;;;4979559;28;20199;-73
2021/07/26 02:55:58;;;;;;;6.20;4.53;;;17.50;99.90;;;;;;4995000;28;20196;-73
2021/07/26 02:58:24;;;;;;;6.07;4.80;;;17.50;99.90;;;;;;4978293;28;20546;-73
2021/07/26 03:00:50;;;;;;;7.23;5.30;;;17.50;99.90;;;;;;4979308;28;20215;-73
2021/07/26 03:03:15;;;;;;;6.63;4.70;;;17.40;99.90;;;;;;4979141;28;20177;-73
2021/07/26 03:05:41;;;;;;;6.03;4.97;;;17.30;99.90;;;;;;4979206;28;20215;-73
2021/07/26 03:08:07;;;;;;;8.27;5.43;;;17.30;99.90;;;;;;4978222;28;20200;-72
2021/07/26 03:10:32;;;;;;;8.07;5.97;;;17.40;99.90;;;;;;5011009;28;20190;-73
2021/07/26 03:12:58;;;;;;;6.77;4.97;;;17.40;99.90;;;;;;4994984;28;20176;-73
2021/07/26 03:15:23;;;;;;;5.87;4.70;;;17.40;99.90;;;;;;4994695;28;20195;-73
2021/07/26 03:17:49;;;;;;;8.47;5.07;;;17.30;99.90;;;;;;4978489;28;20237;-73
2021/07/26 03:20:15;;;;;;;6.07;5.00;;;17.40;99.90;;;;;;4994990;28;20260;-73
2021/07/26 03:22:56;;;;;;;8.67;5.20;;;17.30;99.90;;;;;;4994676;28;20172;-73
2021/07/26 03:25:22;;;;;;;6.53;5.70;;;17.30;99.90;;;;;;4995558;28;20577;-73
2021/07/26 03:27:48;;;;;;;6.77;5.47;;;17.30;99.90;;;;;;4995300;28;20173;-73
2021/07/26 03:30:15;;;;;;;8.17;5.60;;;17.40;99.90;;;;;;4995063;28;20648;-73
2021/07/26 03:32:40;;;;;;;7.67;5.13;;;17.30;99.90;;;;;;4977990;28;20187;-73
2021/07/26 03:35:06;;;;;;;6.33;4.80;;;17.30;99.90;;;;;;4977834;28;20196;-73
2021/07/26 03:37:31;;;;;;;7.23;5.33;;;17.40;99.90;;;;;;4977837;28;20220;-73
2021/07/26 03:39:57;;;;;;;8.87;5.40;;;17.30;99.90;;;;;;4993989;28;20271;-73
2021/07/26 03:42:23;;;;;;;6.10;4.90;;;17.30;99.90;;;;;;4977755;28;20235;-73
2021/07/26 03:44:48;;;;;;;6.03;4.87;;;17.40;99.90;;;;;;4993898;28;20220;-73
2021/07/26 03:47:14;;;;;;;8.53;5.33;;;17.30;99.90;;;;;;4978338;28;20587;-73
2021/07/26 03:49:39;;;;;;;7.47;5.40;;;17.20;99.90;;;;;;4993637;28;20522;-73
2021/07/26 03:52:05;;;;;;;6.93;5.40;;;17.30;99.90;;;;;;4978140;28;20172;-73
2021/07/26 03:54:30;;;;;;;8.07;4.93;;;17.20;99.90;;;;;;4994137;28;20235;-73
2021/07/26 03:56:57;;;;;;;6.33;5.10;;;17.30;99.90;;;;;;4977863;28;20176;-73
2021/07/26 03:59:23;;;;;;;8.07;5.13;;;17.30;99.90;;;;;;4993594;28;20208;-73
2021/07/26 04:01:49;;;;;;;8.30;5.17;;;17.20;99.90;;;;;;4994011;28;20177;-73
2021/07/26 04:04:16;;;;;;;5.83;5.00;;;17.30;99.90;;;;;;4977804;28;20613;-73
2021/07/26 04:06:44;;;;;;;7.73;5.20;;;17.30;99.90;;;;;;4993461;28;20227;-73
2021/07/26 04:09:09;;;;;;;5.23;4.63;;;17.30;99.90;;;;;;4977671;28;20172;-73
2021/07/26 04:11:38;;;;;;;11.57;5.30;;;17.30;99.90;;;;;;4977887;28;20242;-73
2021/07/26 04:14:05;;;;;;;7.87;5.20;;;17.30;99.90;;;;;;4977853;28;20671;-73
2021/07/26 04:16:31;;;;;;;5.93;4.80;;;17.30;99.90;;;;;;4977160;28;20202;-73
2021/07/26 04:18:58;;;;;;;7.60;5.13;;;17.40;99.90;;;;;;4993414;28;20255;-73
2021/07/26 04:21:30;;;;;;;8.37;5.17;;;17.30;99.90;;;;;;4994695;28;20168;-73
2021/07/26 04:23:57;;;;;;;6.23;5.17;;;17.40;99.90;;;;;;4994047;28;20177;-73
2021/07/26 04:26:23;;;;;;;7.07;4.73;;;17.40;99.90;;;;;;4977434;28;20224;-73
2021/07/26 04:28:48;;;;;;;6.23;5.07;;;17.30;99.90;;;;;;4993499;28;20553;-73
2021/07/26 04:31:14;;;;;;;6.20;5.13;;;17.30;99.90;;;;;;4993943;28;20188;-73
2021/07/26 04:33:39;;;;;;;8.07;5.03;;;17.30;99.90;;;;;;4977089;28;20182;-73
2021/07/26 04:36:05;;;;;;;5.10;4.60;;;17.50;99.90;;;;;;4977043;28;20561;-73
2021/07/26 04:38:31;;;;;;;7.23;4.87;;;17.40;99.90;;;;;;4993427;28;20176;-73
2021/07/26 04:40:57;;;;;;;6.17;4.60;;;17.40;99.90;;;;;;4993198;28;20172;-73
2021/07/26 04:43:23;;;;;;;6.67;5.07;;;17.50;99.90;;;;;;4993571;28;20172;-74
2021/07/26 04:45:48;;;;;;;6.73;4.70;;;17.40;99.90;;;;;;4992175;28;20270;-73
2021/07/26 04:48:14;;;;;;;7.07;4.40;;;17.50;99.90;;;;;;4992431;28;20176;-72
2021/07/26 04:50:39;;;;;;;7.00;4.63;;;17.50;99.90;;;;;;4992502;28;20207;-72
2021/07/26 04:53:05;;;;;;;6.53;5.00;;;17.70;99.90;;;;;;4992734;28;20177;-73
2021/07/26 04:55:30;;;;;;;5.97;4.43;;;17.60;99.90;;;;;;4975129;28;20290;-72
2021/07/26 04:57:56;;;;;;;7.23;4.30;;;17.80;99.90;;;;;;4991617;28;20184;-73
2021/07/26 05:00:26;;;;;;;8.70;4.90;;;17.60;99.90;;;;;;4974868;28;20242;-73
2021/07/26 05:02:52;;;;;;;6.00;4.10;;;17.80;99.90;;;;;;4992508;28;20168;-73
2021/07/26 05:05:17;;;;;;;6.77;4.20;;;17.80;99.90;;;;;;4991058;28;20230;-73
2021/07/26 05:07:43;;;;;;;10.80;6.67;;;17.70;99.90;;;;;;4974779;28;20183;-73
2021/07/26 05:10:10;;;;;;;6.27;4.60;;;17.80;99.90;;;;;;4990944;28;20208;-73
2021/07/26 05:12:36;;;;;;;4.20;3.73;;;17.90;99.90;;;;;;4975150;28;20184;-75
2021/07/26 05:15:01;;;;;;;5.77;4.50;;;17.90;99.90;;;;;;4992487;28;20197;-74
2021/07/26 05:17:27;;;;;;;7.67;4.43;;;17.90;99.90;;;;;;4975996;28;20204;-77
2021/07/26 05:19:53;;;;;;;7.70;4.30;;;17.90;99.90;;;;;;4993047;28;20173;-72
2021/07/26 05:22:19;;;;;;;7.67;4.30;;;17.90;99.90;;;;;;4975156;28;20180;-73
2021/07/26 05:24:45;;;;;;;5.90;4.27;;;18.10;99.90;;;;;;4975277;28;20208;-75
2021/07/26 05:27:10;;;;;;;6.57;4.20;;;18.10;99.90;;;;;;4975055;28;20694;-75
2021/07/26 05:29:36;;;;;;;9.03;4.60;;;18.10;99.90;;;;;;4975241;28;20172;-75
2021/07/26 05:32:02;;;;;;;5.10;4.20;;;18.20;99.90;;;;;;4975264;28;20628;-75
2021/07/26 05:34:28;;;;;;;7.83;4.37;;;18.10;99.90;;;;;;4975111;28;20226;-76
2021/07/26 05:36:54;;;;;;;5.13;4.27;;;18.10;99.90;;;;;;4975085;28;20544;-75
2021/07/26 05:39:19;;;;;;;5.93;4.57;;;18.10;99.90;;;;;;4974980;28;20180;-75
2021/07/26 05:41:45;;;;;;;5.67;4.03;;;18.20;99.90;;;;;;4975500;28;20188;-76
2021/07/26 05:44:11;;;;;;;6.87;4.17;;;18.30;99.90;;;;;;4993039;28;20619;-75
2021/07/26 05:46:37;;;;;;;8.23;4.13;;;18.20;99.90;;;;;;4978833;28;20211;-76
2021/07/26 05:49:02;;;;;;;6.13;4.10;;;18.40;99.90;;;;;;4994380;28;20177;-75
2021/07/26 05:51:28;;;;;;;5.90;4.00;;;18.30;99.90;;;;;;4978452;28;20183;-76
2021/07/26 05:53:53;;;;;;;7.33;4.27;;;18.40;99.90;;;;;;4978494;28;20231;-76
2021/07/26 05:56:19;;;;;;;6.20;4.30;;;18.30;99.90;;;;;;4979373;28;20206;-75
2021/07/26 05:58:46;;;;;;;5.67;3.93;;;18.50;99.90;;;;;;4995625;28;20176;-75
2021/07/26 06:04:09;;;;;;;6.60;3.57;;;19.00;99.90;;;;;;4990900;28;20723;-75
2021/07/26 06:06:35;;;;;;;5.20;3.47;;;19.20;99.90;;;;;;4977824;28;20228;-75
2021/07/26 06:09:00;;;;;;;4.20;3.40;;;19.50;99.90;;;;;;4977871;28;20184;-76
2021/07/26 06:11:26;;;;;;;3.50;3.00;;;19.80;99.90;;;;;;4977908;28;20172;-76
2021/07/26 06:13:53;;;;;;;4.87;3.20;;;19.90;99.90;;;;;;4977611;28;20179;-76
2021/07/26 06:16:18;;;;;;;4.83;2.90;;;20.30;99.90;;;;;;4995246;28;20192;-76
2021/07/26 06:18:44;;;;;;;3.80;2.93;;;20.60;99.90;;;;;;4977721;28;20691;-76
2021/07/26 06:21:09;;;;;;;7.80;3.30;;;20.80;99.90;;;;;;4993979;28;20207;-76
2021/07/26 06:23:35;;;;;;;4.77;3.07;;;20.90;99.90;;;;;;4993538;28;20713;-76
2021/07/26 06:26:05;;;;;;;4.83;3.20;;;21.20;99.90;;;;;;4977874;28;20234;-76
2021/07/26 06:28:30;;;;;;;5.00;2.93;;;21.60;99.90;;;;;;4978213;28;20176;-76
2021/07/26 06:30:56;;;;;;;5.60;3.17;;;21.80;99.90;;;;;;4993590;28;20707;-76
2021/07/26 06:33:21;;;;;;;3.90;3.00;;;21.90;99.90;;;;;;4993344;28;20267;-76
2021/07/26 06:35:47;;;;;;;4.87;2.70;;;22.00;99.90;;;;;;4977437;28;20236;-76
2021/07/26 06:38:14;;;;;;;4.53;2.97;;;21.90;99.90;;;;;;4977789;28;20231;-76
2021/07/26 06:40:43;;;;;;;6.60;3.50;;;21.90;99.90;;;;;;4977598;28;20659;-75
2021/07/26 06:43:08;;;;;;;5.57;2.90;;;22.40;99.90;;;;;;4977534;28;20479;-75
2021/07/26 06:45:34;;;;;;;5.63;2.70;;;22.50;99.90;;;;;;4982385;28;20224;-76
2021/07/26 06:47:59;;;;;;;5.53;2.97;;;22.80;99.90;;;;;;4957911;28;20213;-76
2021/07/26 06:50:25;;;;;;;6.57;2.70;;;23.10;99.90;;;;;;4958082;28;20165;-76
2021/07/26 06:52:50;;;;;;;4.10;2.45;;;23.50;99.90;;;;;;4958210;28;20236;-76
2021/07/26 06:55:16;;;;;;;3.88;2.47;;;23.60;99.90;;;;;;4989221;28;20284;-76
2021/07/26 06:57:42;;;;;;;3.40;2.22;;;23.50;99.90;;;;;;4944870;28;20185;-76
2021/07/26 07:00:07;;;;;;;2.50;2.30;;;23.60;99.90;;;;;;4950126;28;20177;-75
2021/07/26 07:02:33;;;;;;;4.78;2.60;;;23.50;99.90;;;;;;4970989;28;20193;-76
2021/07/26 07:05:01;;;;;;;6.07;2.15;;;23.70;99.90;;;;;;4938720;29;20264;-76
2021/07/26 07:07:26;;;;;;;3.55;2.30;;;24.10;99.90;;;;;;4938989;29;20225;-76
2021/07/26 07:09:55;;;;;;;3.57;2.17;;;24.50;99.90;;;;;;4954378;28;20209;-75
2021/07/26 07:12:21;;;;;;;2.95;2.28;;;24.80;99.90;;;;;;4959140;28;20208;-76
2021/07/26 07:14:51;;;;;;;5.10;2.55;;;25.10;99.90;;;;;;4973229;28;20240;-75
2021/07/26 07:17:18;;;;;;;2.78;2.10;;;25.20;99.90;;;;;;4957948;28;20217;-72
2021/07/26 07:19:45;;;;;;;4.13;2.33;;;25.10;99.90;;;;;;4975205;28;20232;-73
2021/07/26 07:22:11;;;;;;;3.03;2.10;;;24.90;99.90;;;;;;4952600;29;20284;-73
2021/07/26 07:24:37;;;;;;;2.72;2.20;;;24.80;99.90;;;;;;4975334;28;20283;-73
2021/07/26 07:27:03;;;;;;;3.33;2.22;;;24.60;99.90;;;;;;4975415;28;20599;-74
2021/07/26 07:29:30;;;;;;;3.28;2.10;;;24.50;99.90;;;;;;4975712;28;20177;-75
2021/07/26 07:32:00;;;;;;;4.85;2.40;;;24.60;99.90;;;;;;4975065;28;20267;-75
2021/07/26 07:34:26;;;;;;;2.67;2.10;;;24.90;99.90;;;;;;4959644;28;20185;-74
2021/07/26 07:36:52;;;;;;;4.30;2.22;;;25.00;99.90;;;;;;4974868;28;20191;-73
2021/07/26 07:39:18;;;;;;;4.95;2.42;;;25.00;99.90;;;;;;4958322;28;20177;-73
2021/07/26 07:41:43;;;;;;;3.42;2.25;;;25.30;99.90;;;;;;4974803;28;20220;-73
2021/07/26 07:44:09;;;;;;;3.28;2.35;;;25.50;99.90;;;;;;4974045;28;20219;-74
2021/07/26 07:46:34;;;;;;;2.80;2.30;;;26.00;99.90;;;;;;4954501;28;20217;-73
2021/07/26 07:49:00;;;;;;;3.50;2.28;;;26.20;99.90;;;;;;4973810;28;20185;-74
2021/07/26 07:51:26;;;;;;;5.28;2.65;;;26.30;99.90;;;;;;4969897;28;20173;-73
2021/07/26 07:53:53;;;;;;;3.40;2.72;;;26.30;99.90;;;;;;4977009;28;20606;-73
2021/07/26 07:56:19;;;;;;;3.35;2.53;;;26.20;99.90;;;;;;4974383;28;20204;-74
2021/07/26 07:58:49;;;;;;;3.08;2.40;;;26.20;99.90;;;;;;4960722;28;20181;-75
2021/07/26 08:01:14;;;;;;;5.78;2.42;;;26.20;99.90;;;;;;4977201;28;20232;-74
2021/07/26 08:03:40;;;;;;;2.80;2.47;;;26.10;99.90;;;;;;4964740;28;20181;-76
2021/07/26 08:06:05;;;;;;;3.90;2.88;;;26.20;99.90;;;;;;4978940;28;20209;-76
2021/07/26 08:08:31;;;;;;;3.40;2.60;;;26.50;99.90;;;;;;4968196;28;20192;-75
2021/07/26 08:10:56;;;;;;;4.53;3.33;;;26.40;99.90;;;;;;4973323;28;20181;-76
2021/07/26 08:13:22;;;;;;;5.18;2.75;;;26.30;99.90;;;;;;4956568;28;20176;-76
2021/07/26 08:15:52;;;;;;;4.30;2.30;;;26.30;99.90;;;;;;4973019;28;20276;-77
2021/07/26 08:18:21;;;;;;;5.25;2.40;;;26.10;99.90;;;;;;4973026;28;20181;-78
2021/07/26 08:20:46;;;;;;;3.25;2.50;;;26.20;99.90;;;;;;4975501;28;20200;-78
2021/07/26 08:23:12;;;;;;;4.05;2.75;;;26.10;99.90;;;;;;4941067;28;20549;-76
2021/07/26 08:25:38;;;;;;;3.88;2.58;;;26.10;99.90;;;;;;4970464;28;20253;-75
2021/07/26 08:28:04;;;;;;;3.88;2.47;;;26.00;99.90;;;;;;4969931;28;20213;-74
2021/07/26 08:30:31;;;;;;;5.55;2.70;;;25.80;99.90;;;;;;4952958;29;20624;-72
2021/07/26 08:32:57;;;;;;;4.68;2.42;;;25.80;99.90;;;;;;4954229;28;20621;-72
2021/07/26 08:35:22;;;;;;;5.55;2.13;;;26.00;99.90;;;;;;4969166;28;20201;-71
2021/07/26 08:37:49;;;;;;;4.20;2.17;;;25.70;99.90;;;;;;4969090;28;20562;-71
2021/07/26 08:40:15;;;;;;;4.55;2.22;;;25.60;99.90;;;;;;4968981;28;20177;-75
2021/07/26 08:42:40;;;;;;;3.03;2.17;;;25.60;99.90;;;;;;4969270;28;20177;-75
2021/07/26 08:45:08;;;;;;;2.80;2.28;;;25.40;99.90;;;;;;4968976;28;20213;-77
2021/07/26 08:47:34;;;;;;;4.15;2.58;;;25.30;99.90;;;;;;4953799;28;20174;-76
2021/07/26 08:50:03;;;;;;;4.10;2.60;;;24.90;99.90;;;;;;4969747;28;20708;-74
2021/07/26 08:52:32;;;;;;;3.75;2.20;;;24.60;99.90;;;;;;4969884;28;20256;-74
2021/07/26 08:54:58;;;;;;;3.60;2.20;;;24.70;99.90;;;;;;4953953;29;20205;-74
2021/07/26 08:57:23;;;;;;;3.30;2.20;;;24.60;99.90;;;;;;4953999;29;20272;-74
2021/07/26 08:59:49;;;;;;;2.97;1.90;;;24.60;99.90;;;;;;4970096;28;20642;-74
2021/07/26 09:02:14;;;;;;;2.83;2.10;;;24.40;99.90;;;;;;4970391;28;20660;-74
2021/07/26 09:04:40;;;;;;;3.63;2.00;;;24.30;99.90;;;;;;4953892;28;20213;-74
2021/07/26 09:07:06;;;;;;;3.13;2.10;;;24.20;99.90;;;;;;4958319;28;20177;-74
2021/07/26 09:09:44;;;;;;;2.90;1.88;;;24.20;99.90;;;;;;4972557;28;20808;-73
2021/07/26 09:12:11;;;;;;;2.90;1.60;;;24.20;99.90;;;;;;4973370;28;20548;-71
2021/07/26 09:14:40;;;;;;;2.63;2.03;;;24.40;99.90;;;;;;4971395;28;20199;-73
2021/07/26 09:17:09;;;;;;;4.47;1.80;;;24.80;99.90;;;;;;4955758;28;20178;-74
2021/07/26 09:20:00;;;;;;;2.30;2.10;;;25.10;99.90;;;;;;4974715;28;20182;-73
2021/07/26 09:22:29;;;;;;;4.38;2.20;;;25.10;99.90;;;;;;4975016;28;20268;-74
2021/07/26 09:25:10;;;;;;;2.25;1.90;;;25.30;99.90;;;;;;4972733;28;20206;-74
2021/07/26 09:27:36;;;;;;;3.40;1.90;;;25.40;99.90;;;;;;4956996;28;20305;-73
2021/07/26 09:30:15;;;;;;;3.33;1.90;;;25.60;99.90;;;;;;4956191;28;20257;-72
2021/07/26 09:32:41;;;;;;;2.03;1.50;;;25.50;99.90;;;;;;4971666;28;20217;-72
2021/07/26 09:35:08;;;;;;;2.10;1.80;;;25.40;99.90;;;;;;4955576;28;20206;-72
2021/07/26 09:37:33;;;;;;;4.53;1.65;;;25.40;99.90;;;;;;4971622;28;20178;-72
2021/07/26 09:40:21;;;;;;;2.53;1.60;;;25.40;99.90;;;;;;4971697;28;20633;-72
2021/07/26 09:42:50;;;;;;;2.50;1.85;;;25.40;99.90;;;;;;4971459;28;20263;-72
2021/07/26 09:45:23;;;;;;;4.22;1.60;;;25.30;99.90;;;;;;4955215;29;20226;-72
2021/07/26 09:48:04;;;;;;;2.30;1.80;;;25.20;99.90;;;;;;4956778;28;20181;-72
2021/07/26 09:50:37;;;;;;;3.55;1.60;;;25.30;99.90;;;;;;4971503;28;20224;-72
2021/07/26 09:53:10;;;;;;;3.72;1.60;;;25.10;99.90;;;;;;4971143;28;20174;-72
2021/07/26 09:55:36;;;;;;;5.10;2.20;;;25.10;99.90;;;;;;4971330;28;20189;-72
2021/07/26 09:58:02;;;;;;;3.35;2.03;;;25.30;99.90;;;;;;4971393;28;20182;-72
2021/07/26 10:00:29;;;;;;;3.13;2.00;;;25.20;99.90;;;;;;4971210;28;20642;-72
2021/07/26 10:02:54;;;;;;;10.98;2.25;;;25.10;99.90;;;;;;4955226;29;20185;-73
2021/07/26 10:05:23;;;;;;;3.58;1.83;;;24.80;99.90;;;;;;4971378;28;20209;-72
2021/07/26 10:07:50;;;;;;;3.45;1.80;;;24.80;99.90;;;;;;4970865;28;20185;-72
2021/07/26 10:10:16;;;;;;;2.85;2.00;;;24.90;99.90;;;;;;4970943;28;20184;-72
2021/07/26 10:12:41;;;;;;;3.22;2.10;;;24.90;99.90;;;;;;4971491;28;20542;-72
2021/07/26 10:15:07;;;;;;;2.05;1.80;;;25.30;99.90;;;;;;4954887;28;20198;-72
2021/07/26 10:17:33;;;;;;;3.70;2.10;;;25.30;99.90;;;;;;4971225;28;20185;-72
2021/07/26 10:19:58;;;;;;;3.50;2.10;;;25.40;99.90;;;;;;4970784;28;20192;-72
2021/07/26 10:22:24;;;;;;;2.60;1.83;;;25.80;99.90;;;;;;4971269;28;20236;-74
2021/07/26 10:24:56;;;;;;;2.22;1.75;;;25.60;99.90;;;;;;5005451;28;20235;-73
2021/07/26 10:27:23;;;;;;;4.05;2.00;;;25.70;99.90;;;;;;4976957;28;20259;-73
2021/07/26 10:29:50;;;;;;;3.33;2.30;;;26.00;99.90;;;;;;4976545;28;20164;-73
2021/07/26 10:32:39;;;;;;;2.83;1.92;;;26.20;99.90;;;;;;4978265;28;20177;-73
2021/07/26 10:35:37;;;;;;;3.67;1.73;;;26.40;99.90;;;;;;4977973;28;20241;-73
2021/07/26 10:38:04;;;;;;;3.35;1.85;;;26.50;99.90;;;;;;5011836;28;20234;-73
2021/07/26 10:40:30;;;;;;;1.90;1.70;;;26.40;99.90;;;;;;4980201;28;20584;-73
2021/07/26 10:43:05;;;;;;;3.38;3.08;;;26.30;99.90;;;;;;4977339;28;20176;-76
2021/07/26 10:45:31;;;;;;;3.75;1.80;;;26.00;99.90;;;;;;4975102;28;20207;-76
2021/07/26 10:48:21;;;;;;;2.42;1.60;;;25.80;99.90;;;;;;4991402;28;20703;-76
2021/07/26 10:50:48;;;;;;;3.38;2.00;;;26.00;99.90;;;;;;4990203;28;20173;-72
2021/07/26 10:53:37;;;;;;;3.47;1.92;;;26.00;99.90;;;;;;4958450;28;20645;-72
2021/07/26 10:56:09;;;;;;;2.58;2.10;;;26.10;99.90;;;;;;4955544;28;20218;-72
2021/07/26 10:58:57;;;;;;;3.22;2.28;;;26.10;99.90;;;;;;4955137;28;20265;-72
2021/07/26 11:01:23;;;;;;;5.72;2.20;;;26.00;99.90;;;;;;4956187;28;20192;-72
2021/07/26 11:03:49;;;;;;;2.38;2.10;;;25.90;99.90;;;;;;4974610;28;20169;-72
2021/07/26 11:06:34;;;;;;;2.80;2.03;;;25.70;99.90;;;;;;4974224;28;20243;-72
2021/07/26 11:09:34;;;;;;;3.58;2.50;;;25.70;99.90;;;;;;4972857;28;20209;-72
2021/07/26 11:12:00;;;;;;;3.03;1.85;;;25.60;99.90;;;;;;4965858;28;20181;-72
2021/07/26 11:14:25;;;;;;;2.55;2.20;;;25.70;99.90;;;;;;4947426;28;20185;-72
2021/07/26 11:17:11;;;;;;;3.25;2.22;;;25.90;99.90;;;;;;4979625;28;20173;-72
2021/07/26 11:19:46;;;;;;;2.50;2.03;;;26.20;99.90;;;;;;4969266;28;20595;-72
2021/07/26 11:22:15;;;;;;;2.58;2.08;;;26.10;99.90;;;;;;4974466;28;20177;-72
2021/07/26 11:24:43;;;;;;;2.40;2.05;;;26.00;99.90;;;;;;4974117;28;20300;-72
2021/07/26 11:27:09;;;;;;;3.72;2.10;;;26.00;99.90;;;;;;4974062;28;20177;-72
2021/07/26 11:29:35;;;;;;;2.65;2.17;;;25.70;99.90;;;;;;4972792;28;20177;-73
2021/07/26 11:32:00;;;;;;;2.70;2.28;;;25.70;99.90;;;;;;4973092;28;20188;-73
2021/07/26 11:34:30;;;;;;;2.42;2.20;;;25.70;99.90;;;;;;4972425;28;20177;-73
2021/07/26 11:37:14;;;;;;;4.10;2.35;;;25.70;99.90;;;;;;4956952;28;20180;-75
2021/07/26 11:39:47;;;;;;;5.13;2.30;;;25.70;99.90;;;;;;4957566;28;20220;-74
2021/07/26 11:42:13;;;;;;;3.60;2.28;;;25.60;99.90;;;;;;4973469;28;20177;-74
2021/07/26 11:44:38;;;;;;;2.75;2.30;;;25.70;99.90;;;;;;4972266;28;20208;-76
2021/07/26 11:47:04;;;;;;;2.95;2.17;;;25.80;99.90;;;;;;4972742;28;20337;-75
2021/07/26 11:49:29;;;;;;;3.65;2.20;;;25.70;99.90;;;;;;4956490;28;20177;-75
2021/07/26 11:52:09;;;;;;;2.58;2.00;;;25.70;99.90;;;;;;4956733;28;20199;-75
2021/07/26 11:54:35;;;;;;;2.70;2.00;;;25.80;99.90;;;;;;4980862;28;20191;-75
2021/07/26 11:57:07;;;;;;;3.75;2.17;;;25.90;99.90;;;;;;4991493;28;20554;-75
2021/07/26 11:59:36;;;;;;;2.28;2.08;;;25.90;99.90;;;;;;4975382;28;20183;-75
2021/07/26 12:02:12;;;;;;;2.92;2.20;;;25.90;99.90;;;;;;4976464;28;20208;-75
2021/07/26 12:04:37;;;;;;;2.75;2.20;;;26.00;99.90;;;;;;4972311;28;20283;-74
2021/07/26 12:07:04;;;;;;;2.20;1.95;;;26.00;99.90;;;;;;4956374;28;20579;-75
2021/07/26 12:09:30;;;;;;;3.25;1.85;;;25.70;99.90;;;;;;4940219;28;20181;-74
2021/07/26 12:12:10;;;;;;;3.15;1.90;;;25.70;99.90;;;;;;4956016;28;20181;-75
2021/07/26 12:14:35;;;;;;;1.70;1.52;;;25.70;99.90;;;;;;4956667;28;20328;-74
2021/07/26 12:17:04;;;;;;;3.63;1.90;;;26.00;99.90;;;;;;4956152;28;20712;-75
2021/07/26 12:19:30;;;;;;;2.15;1.92;;;26.00;99.90;;;;;;4973327;28;20255;-76
2021/07/26 12:21:57;;;;;;;3.00;1.80;;;26.10;99.90;;;;;;4956117;28;20188;-75
2021/07/26 12:25:01;;;;;;;3.00;1.77;;;26.10;99.90;;;;;;4955958;28;20204;-75
2021/07/26 12:27:27;;;;;;;2.83;1.83;;;26.20;99.90;;;;;;4966301;28;20188;-74
2021/07/26 12:29:54;;;;;;;3.40;1.90;;;26.40;99.90;;;;;;4971994;28;20255;-75
2021/07/26 12:32:20;;;;;;;2.42;2.05;;;26.60;99.90;;;;;;4973263;28;20204;-74
2021/07/26 12:35:14;;;;;;;2.13;1.80;;;26.70;99.90;;;;;;4955825;28;20661;-74
2021/07/26 12:37:40;;;;;;;4.88;2.05;;;26.60;99.90;;;;;;4971964;28;20185;-74
2021/07/26 12:40:15;;;;;;;2.58;1.88;;;26.70;99.90;;;;;;4955856;28;20239;-74
2021/07/26 12:42:41;;;;;;;3.58;1.95;;;26.80;99.90;;;;;;4972015;28;20271;-76
2021/07/26 12:45:23;;;;;;;2.65;1.55;;;26.70;99.90;;;;;;4971714;28;20292;-72
2021/07/26 12:47:48;;;;;;;2.22;1.60;;;26.60;99.90;;;;;;4956995;28;20169;-74
2021/07/26 12:50:14;;;;;;;2.10;1.70;;;26.50;99.90;;;;;;4943041;28;20709;-74
2021/07/26 12:52:39;;;;;;;5.40;1.88;;;26.50;99.90;;;;;;4937627;29;20601;-74